Time;durP1;ratioP1;P1;durP2;ratioP2;P2;SDS_P1;SDS_P2;PMS_P1;PMS_P2;Temp;Humidity;BMP_temperature;BMP_pressure;BME280_temperature;BME280_humidity;BME280_pressure;Samples;Min_cycle;Max_cycle;Signal;HPM_P1;HPM_P2
2021/10/06 04:31:10;;;;;;;2.63;0.50;;;16.80;73.40;;;;;;5208769;24;20063;-67
2021/10/06 04:33:36;;;;;;;4.18;0.50;;;16.80;73.90;;;;;;4789038;30;20138;-67
2021/10/06 04:36:01;;;;;;;2.47;0.22;;;16.90;73.80;;;;;;4790893;30;20490;-70
2021/10/06 04:38:27;;;;;;;4.47;0.50;;;17.00;73.40;;;;;;4790589;30;20051;-69
2021/10/06 04:40:53;;;;;;;2.78;0.80;;;17.00;73.00;;;;;;4790998;30;20074;-70
2021/10/06 04:43:19;;;;;;;3.65;0.45;;;17.10;73.30;;;;;;4789397;30;20046;-72
2021/10/06 04:45:44;;;;;;;2.15;0.40;;;17.10;72.50;;;;;;4790991;30;20097;-69
2021/10/06 04:48:10;;;;;;;3.85;0.43;;;17.10;72.30;;;;;;4790979;30;20051;-70
2021/10/06 04:50:36;;;;;;;4.13;0.40;;;17.10;72.10;;;;;;4774792;30;20482;-70
2021/10/06 04:53:03;;;;;;;2.13;0.30;;;17.20;71.70;;;;;;4790961;30;20098;-71
2021/10/06 04:55:29;;;;;;;3.35;0.55;;;17.20;71.40;;;;;;4791204;30;20071;-69
2021/10/06 04:57:57;;;;;;;2.65;0.88;;;17.20;71.40;;;;;;4774812;30;20051;-73
2021/10/06 05:00:23;;;;;;;4.30;0.40;;;17.20;71.30;;;;;;4775345;30;20051;-71
2021/10/06 05:02:49;;;;;;;4.30;0.40;;;17.20;71.40;;;;;;4790622;30;20074;-68
2021/10/06 05:05:14;;;;;;;4.40;0.60;;;17.20;71.50;;;;;;4790130;30;20367;-68
2021/10/06 05:07:40;;;;;;;2.63;0.40;;;17.20;71.50;;;;;;4790597;30;20062;-67
2021/10/06 05:10:06;;;;;;;5.35;0.88;;;17.20;71.60;;;;;;4789981;30;20489;-70
2021/10/06 05:12:32;;;;;;;5.47;0.63;;;17.20;71.60;;;;;;4790683;30;20090;-68
2021/10/06 05:14:57;;;;;;;3.15;0.60;;;17.20;72.00;;;;;;4789996;30;20155;-68
2021/10/06 05:17:23;;;;;;;3.47;0.50;;;17.20;72.50;;;;;;4790728;30;20059;-68
2021/10/06 05:19:49;;;;;;;2.60;0.30;;;17.20;73.30;;;;;;4790206;30;20051;-68
2021/10/06 05:22:15;;;;;;;6.20;0.65;;;17.30;73.80;;;;;;4790176;29;20051;-68
2021/10/06 05:24:40;;;;;;;2.47;0.47;;;17.40;73.90;;;;;;4790166;30;20582;-68
2021/10/06 05:27:06;;;;;;;2.60;0.45;;;17.50;73.60;;;;;;4790334;30;20047;-68
2021/10/06 05:29:32;;;;;;;3.50;0.40;;;17.60;73.70;;;;;;4790015;30;20058;-68
2021/10/06 05:32:03;;;;;;;5.22;0.80;;;17.70;73.50;;;;;;4789596;29;20498;-68
2021/10/06 05:34:30;;;;;;;2.70;0.32;;;17.80;73.60;;;;;;4788719;30;20171;-68
2021/10/06 05:36:55;;;;;;;4.60;0.50;;;17.80;73.50;;;;;;4790286;30;20051;-68
2021/10/06 05:39:21;;;;;;;5.93;0.88;;;17.90;73.10;;;;;;4789971;30;20063;-68
2021/10/06 05:41:47;;;;;;;5.95;0.57;;;17.90;73.50;;;;;;4790082;30;20055;-68
2021/10/06 05:44:12;;;;;;;5.60;0.73;;;17.80;73.80;;;;;;4789291;30;20517;-69
2021/10/06 05:46:38;;;;;;;4.13;0.43;;;17.90;74.00;;;;;;4789335;30;20083;-69
2021/10/06 05:49:04;;;;;;;8.98;1.10;;;18.00;74.10;;;;;;4790055;30;20116;-69
2021/10/06 05:51:29;;;;;;;11.43;0.63;;;18.00;74.10;;;;;;4790050;30;20051;-67
2021/10/06 05:53:55;;;;;;;5.28;0.40;;;18.10;74.40;;;;;;4789850;30;20082;-68
2021/10/06 05:56:21;;;;;;;10.77;0.80;;;18.20;74.20;;;;;;4790075;30;20463;-69
2021/10/06 05:58:46;;;;;;;7.40;1.17;;;18.20;74.20;;;;;;4789782;30;20438;-69
2021/10/06 06:01:12;;;;;;;10.10;1.02;;;18.20;73.80;;;;;;4789926;30;20059;-69
2021/10/06 06:03:38;;;;;;;10.80;1.23;;;18.20;73.40;;;;;;4789998;30;20048;-69
2021/10/06 06:06:03;;;;;;;11.88;1.40;;;18.30;73.30;;;;;;4789880;30;20438;-69
2021/10/06 06:08:29;;;;;;;13.15;1.17;;;18.30;73.30;;;;;;4789623;30;20055;-72
2021/10/06 06:10:55;;;;;;;6.75;1.00;;;18.40;73.40;;;;;;4789940;30;20055;-69
2021/10/06 06:13:20;;;;;;;7.15;1.20;;;18.40;73.30;;;;;;4789829;30;20120;-69
2021/10/06 06:15:47;;;;;;;7.57;0.90;;;18.40;72.80;;;;;;4789956;30;20051;-69
2021/10/06 06:18:13;;;;;;;7.25;0.80;;;18.40;72.50;;;;;;4789500;30;20467;-69
2021/10/06 06:20:38;;;;;;;9.93;0.90;;;18.40;72.40;;;;;;4789699;30;20089;-69
2021/10/06 06:23:04;;;;;;;12.15;0.93;;;18.40;72.40;;;;;;4789953;30;20057;-69
2021/10/06 06:25:30;;;;;;;7.55;0.70;;;18.40;72.40;;;;;;4789950;30;20048;-69
2021/10/06 06:27:55;;;;;;;7.15;0.88;;;18.40;72.40;;;;;;4774092;30;20462;-69
2021/10/06 06:30:21;;;;;;;4.15;0.50;;;18.30;72.30;;;;;;4789918;30;20059;-69
2021/10/06 06:32:47;;;;;;;3.08;0.45;;;18.30;72.40;;;;;;4789615;29;20067;-69
2021/10/06 06:35:12;;;;;;;4.70;0.60;;;18.20;72.20;;;;;;4792158;30;20063;-69
2021/10/06 06:37:38;;;;;;;6.90;0.98;;;18.20;72.50;;;;;;4793380;30;20055;-69
2021/10/06 06:40:06;;;;;;;6.28;0.43;;;18.20;72.70;;;;;;4793243;30;20359;-69
2021/10/06 06:42:32;;;;;;;6.65;0.60;;;18.10;72.70;;;;;;4792974;30;20135;-68
2021/10/06 06:44:57;;;;;;;5.07;0.57;;;18.10;72.90;;;;;;4789150;30;20457;-70
2021/10/06 06:47:23;;;;;;;6.53;0.88;;;18.10;72.70;;;;;;4781439;30;20098;-70
2021/10/06 06:49:49;;;;;;;5.35;0.75;;;18.00;73.10;;;;;;4774749;30;20052;-69
2021/10/06 06:52:15;;;;;;;8.88;1.05;;;18.00;73.30;;;;;;4788659;30;20051;-70
2021/10/06 06:54:41;;;;;;;6.00;0.70;;;18.00;73.30;;;;;;4792640;30;20139;-69
2021/10/06 06:57:06;;;;;;;12.88;1.20;;;18.00;73.80;;;;;;4792215;30;20051;-69
2021/10/06 06:59:32;;;;;;;10.30;1.08;;;18.00;73.70;;;;;;4792655;30;20093;-69
2021/10/06 07:01:59;;;;;;;11.85;1.08;;;17.90;73.40;;;;;;4792493;30;20134;-69
2021/10/06 07:04:25;;;;;;;5.40;1.02;;;17.90;73.30;;;;;;4792747;30;20059;-69
2021/10/06 07:06:56;;;;;;;7.80;0.98;;;17.90;73.30;;;;;;4792738;30;20351;-68
2021/10/06 07:09:24;;;;;;;6.93;0.77;;;17.80;73.30;;;;;;4792179;30;20066;-68
2021/10/06 07:11:54;;;;;;;8.82;1.40;;;17.80;74.00;;;;;;4792172;30;20043;-69
2021/10/06 07:14:20;;;;;;;7.00;0.95;;;17.80;73.70;;;;;;4792219;30;20433;-70
2021/10/06 07:16:46;;;;;;;8.57;1.13;;;17.80;73.80;;;;;;4792176;30;20343;-68
2021/10/06 07:19:12;;;;;;;8.32;0.70;;;17.70;73.70;;;;;;4792195;30;20056;-68
2021/10/06 07:21:43;;;;;;;11.30;1.00;;;17.70;73.90;;;;;;4791491;30;20051;-70
2021/10/06 07:24:18;;;;;;;9.00;1.00;;;17.70;74.00;;;;;;4791873;30;20047;-69
2021/10/06 07:26:44;;;;;;;6.75;0.90;;;17.70;74.00;;;;;;4791959;30;20065;-68
2021/10/06 07:29:10;;;;;;;9.35;0.88;;;17.70;74.10;;;;;;4776116;30;20467;-68
2021/10/06 07:31:36;;;;;;;10.30;1.08;;;17.70;74.20;;;;;;4791505;30;20158;-68
2021/10/06 07:34:02;;;;;;;7.55;0.68;;;17.70;74.10;;;;;;4791618;30;20112;-69
2021/10/06 07:36:28;;;;;;;3.88;0.63;;;17.20;71.40;;;;;;4775755;30;20059;-69
2021/10/06 07:38:56;;;;;;;3.65;0.60;;;16.70;71.90;;;;;;4791533;30;20059;-69
2021/10/06 07:41:23;;;;;;;3.22;0.57;;;16.40;73.10;;;;;;4791604;30;20055;-69
2021/10/06 07:43:49;;;;;;;4.18;0.50;;;16.30;73.90;;;;;;4791782;30;20134;-69
2021/10/06 07:46:15;;;;;;;3.50;0.70;;;16.10;74.60;;;;;;4791388;29;20094;-69
2021/10/06 07:48:41;;;;;;;4.50;0.60;;;16.00;75.10;;;;;;4775602;30;20473;-69
2021/10/06 07:51:07;;;;;;;5.60;1.00;;;15.90;75.20;;;;;;4791250;30;20055;-69
2021/10/06 07:53:33;;;;;;;6.07;0.65;;;15.90;76.10;;;;;;4788623;30;20146;-69
2021/10/06 07:56:00;;;;;;;5.65;0.60;;;16.10;77.10;;;;;;4773671;30;20110;-70
2021/10/06 07:58:26;;;;;;;4.50;0.50;;;16.30;77.00;;;;;;4757552;30;20098;-70
2021/10/06 08:00:52;;;;;;;3.08;0.85;;;16.40;76.60;;;;;;4773796;30;20087;-69
2021/10/06 08:03:19;;;;;;;5.20;0.68;;;16.60;76.60;;;;;;4772806;30;20121;-70
2021/10/06 08:05:47;;;;;;;4.03;0.68;;;16.70;76.20;;;;;;4789578;30;20055;-70
2021/10/06 08:08:13;;;;;;;6.43;0.70;;;16.80;75.90;;;;;;4791143;30;20104;-70
2021/10/06 08:10:39;;;;;;;5.53;0.57;;;16.90;76.00;;;;;;4791014;30;20054;-69
2021/10/06 08:13:05;;;;;;;3.72;0.40;;;16.90;75.70;;;;;;4775280;30;20051;-69
2021/10/06 08:15:32;;;;;;;3.03;0.52;;;17.00;75.60;;;;;;4780313;30;20047;-69
2021/10/06 08:17:58;;;;;;;3.35;0.30;;;17.10;75.60;;;;;;4758433;30;20083;-70
2021/10/06 08:20:24;;;;;;;4.47;0.50;;;17.10;75.50;;;;;;4773258;30;20078;-69
2021/10/06 08:22:49;;;;;;;3.88;0.50;;;17.10;75.20;;;;;;4773121;30;20357;-69
2021/10/06 08:25:15;;;;;;;4.05;0.77;;;17.10;75.00;;;;;;4773256;30;20482;-69
2021/10/06 08:27:41;;;;;;;3.03;0.38;;;17.20;75.30;;;;;;4773350;30;20062;-69
2021/10/06 08:30:07;;;;;;;4.72;0.50;;;17.20;75.50;;;;;;4772723;30;20438;-69
2021/10/06 08:32:33;;;;;;;3.25;0.47;;;17.20;75.60;;;;;;4772874;30;20489;-70
2021/10/06 08:34:58;;;;;;;2.90;0.50;;;17.20;75.60;;;;;;4773526;30;20059;-70
2021/10/06 08:37:24;;;;;;;1.92;0.40;;;17.20;75.60;;;;;;4772987;30;20117;-70
2021/10/06 08:39:50;;;;;;;3.03;0.60;;;17.30;75.50;;;;;;4772919;30;20051;-70
2021/10/06 08:42:16;;;;;;;3.50;0.50;;;17.30;75.00;;;;;;4772969;30;20048;-69
2021/10/06 08:44:50;;;;;;;3.33;0.50;;;17.30;75.20;;;;;;4772948;30;20058;-70
2021/10/06 08:47:16;;;;;;;4.53;0.70;;;17.30;75.10;;;;;;4772811;30;20060;-70
2021/10/06 08:49:43;;;;;;;4.32;0.45;;;17.30;75.00;;;;;;4787257;30;20055;-72
2021/10/06 08:52:10;;;;;;;4.78;0.70;;;17.30;75.10;;;;;;4791180;30;20451;-69
2021/10/06 08:54:36;;;;;;;4.10;0.50;;;17.30;75.30;;;;;;4790561;30;20071;-71
2021/10/06 08:57:02;;;;;;;2.25;0.43;;;17.30;74.60;;;;;;4789773;29;20055;-70
2021/10/06 08:59:28;;;;;;;6.28;0.80;;;17.30;74.80;;;;;;4774805;30;20054;-71
2021/10/06 09:01:54;;;;;;;3.95;0.40;;;17.40;74.90;;;;;;4774622;30;20059;-72
2021/10/06 09:04:31;;;;;;;3.72;0.50;;;17.50;74.30;;;;;;4759978;30;20494;-71
2021/10/06 09:07:03;;;;;;;5.20;0.50;;;17.70;74.00;;;;;;4790332;30;20057;-70
2021/10/06 09:09:32;;;;;;;3.88;0.63;;;17.90;73.50;;;;;;4776166;30;20426;-71
2021/10/06 09:11:59;;;;;;;3.05;0.20;;;18.00;73.80;;;;;;4772607;30;20128;-70
2021/10/06 09:14:25;;;;;;;2.30;0.70;;;18.00;73.10;;;;;;4772478;30;20059;-71
2021/10/06 09:17:06;;;;;;;2.47;0.45;;;18.10;72.90;;;;;;4756864;30;20507;-71
2021/10/06 09:19:43;;;;;;;4.15;0.20;;;18.10;73.20;;;;;;4772295;30;20056;-71
2021/10/06 09:22:17;;;;;;;4.35;0.70;;;18.20;72.70;;;;;;4756502;30;20070;-72
2021/10/06 09:24:57;;;;;;;2.10;0.30;;;18.20;72.10;;;;;;4772513;30;20063;-71
2021/10/06 09:27:27;;;;;;;1.95;0.30;;;18.20;72.50;;;;;;4772221;30;20063;-71
2021/10/06 09:29:55;;;;;;;2.70;0.50;;;18.20;72.70;;;;;;4788201;30;20059;-70
2021/10/06 09:32:33;;;;;;;5.80;0.80;;;18.20;72.80;;;;;;4790199;30;20063;-69
2021/10/06 09:35:04;;;;;;;4.18;0.35;;;18.20;72.70;;;;;;4790020;30;20086;-69
2021/10/06 09:37:31;;;;;;;4.03;0.40;;;18.20;72.50;;;;;;4789870;30;20055;-69
2021/10/06 09:39:57;;;;;;;2.20;0.40;;;18.20;73.00;;;;;;4789939;30;20391;-69
2021/10/06 09:42:22;;;;;;;3.00;0.40;;;18.20;73.00;;;;;;4790035;30;20051;-69
2021/10/06 09:44:53;;;;;;;7.63;0.70;;;18.20;73.00;;;;;;4790027;30;20093;-70
2021/10/06 09:47:18;;;;;;;1.48;0.20;;;18.20;72.90;;;;;;4790061;30;20097;-70
2021/10/06 09:49:44;;;;;;;3.75;0.40;;;18.30;73.10;;;;;;4790011;30;20051;-69
2021/10/06 09:52:15;;;;;;;2.13;0.40;;;18.20;73.00;;;;;;4789745;30;20094;-70
2021/10/06 09:54:52;;;;;;;5.47;0.70;;;18.20;73.00;;;;;;4772432;30;20165;-69
2021/10/06 09:57:29;;;;;;;2.28;0.40;;;18.20;73.10;;;;;;4789817;30;20043;-69
2021/10/06 09:59:57;;;;;;;3.90;0.43;;;18.20;73.10;;;;;;4790013;30;20130;-69
2021/10/06 10:02:25;;;;;;;4.63;0.52;;;18.20;73.20;;;;;;4784160;30;20409;-70
2021/10/06 10:04:52;;;;;;;1.67;0.20;;;18.30;73.00;;;;;;4756206;30;20091;-70
2021/10/06 10:07:18;;;;;;;2.20;0.20;;;18.40;73.00;;;;;;4771718;30;20134;-70
2021/10/06 10:09:44;;;;;;;2.72;0.30;;;18.50;73.00;;;;;;4774553;30;20139;-70
2021/10/06 10:12:10;;;;;;;2.90;0.20;;;18.60;72.80;;;;;;4775616;30;20067;-70
2021/10/06 10:14:37;;;;;;;3.53;0.32;;;18.70;72.50;;;;;;4775573;30;20051;-70
2021/10/06 10:17:03;;;;;;;6.43;0.38;;;18.80;72.20;;;;;;4775629;30;20394;-70
2021/10/06 10:19:30;;;;;;;2.78;0.57;;;18.90;72.00;;;;;;4775550;30;20056;-70
2021/10/06 10:21:57;;;;;;;5.38;0.55;;;18.90;71.90;;;;;;4774933;30;20055;-70
2021/10/06 10:24:25;;;;;;;3.55;0.20;;;18.90;72.10;;;;;;4775288;30;20063;-70
2021/10/06 10:27:07;;;;;;;2.53;0.35;;;19.00;72.00;;;;;;4776637;30;20052;-70
2021/10/06 10:29:50;;;;;;;2.10;0.43;;;19.00;71.80;;;;;;4793067;30;20134;-71
2021/10/06 10:32:21;;;;;;;3.80;0.45;;;19.00;71.50;;;;;;4792918;30;20063;-71
2021/10/06 10:34:56;;;;;;;2.97;0.40;;;19.00;71.80;;;;;;4777774;30;20047;-70
2021/10/06 10:37:53;;;;;;;2.28;0.40;;;18.90;72.60;;;;;;4793114;30;20098;-72
2021/10/06 10:40:33;;;;;;;4.18;0.50;;;18.90;72.00;;;;;;4793500;30;20142;-69
2021/10/06 10:43:00;;;;;;;3.95;0.55;;;18.90;71.70;;;;;;4793041;30;20043;-69
2021/10/06 10:46:00;;;;;;;5.07;0.70;;;18.90;71.10;;;;;;4792937;30;20051;-69
2021/10/06 10:48:31;;;;;;;3.20;0.50;;;18.80;69.70;;;;;;4792908;30;20364;-69
2021/10/06 10:50:57;;;;;;;4.60;0.45;;;18.80;70.40;;;;;;4777037;30;20427;-69
2021/10/06 10:53:50;;;;;;;4.00;0.40;;;18.70;70.70;;;;;;4791143;30;20106;-69
2021/10/06 10:56:42;;;;;;;1.98;0.32;;;18.70;70.60;;;;;;4792801;30;20051;-70
2021/10/06 10:59:25;;;;;;;4.25;0.38;;;18.60;69.80;;;;;;4792550;30;20087;-70
2021/10/06 11:01:57;;;;;;;3.90;0.30;;;18.60;71.00;;;;;;4792487;30;20064;-69
2021/10/06 11:04:28;;;;;;;2.33;0.30;;;18.50;70.80;;;;;;4792805;30;20054;-70
2021/10/06 11:07:13;;;;;;;5.97;0.55;;;18.50;71.30;;;;;;4792773;30;20063;-69
2021/10/06 11:09:47;;;;;;;1.85;0.22;;;18.50;71.70;;;;;;4792642;30;20051;-70
2021/10/06 11:12:14;;;;;;;4.10;0.43;;;18.40;71.40;;;;;;4792461;30;20142;-69
2021/10/06 11:14:42;;;;;;;3.83;0.30;;;18.40;71.40;;;;;;4792871;30;20067;-70
2021/10/06 11:17:19;;;;;;;5.10;0.50;;;18.40;71.80;;;;;;4792716;30;20054;-70
2021/10/06 11:19:57;;;;;;;3.53;0.38;;;18.40;72.10;;;;;;4789662;29;20403;-69
2021/10/06 11:22:22;;;;;;;3.30;0.38;;;18.40;71.90;;;;;;4792632;30;20447;-69
2021/10/06 11:24:48;;;;;;;4.25;0.38;;;18.30;72.20;;;;;;4792449;30;20078;-69
2021/10/06 11:27:15;;;;;;;6.88;0.40;;;18.30;72.10;;;;;;4792406;30;20130;-69
2021/10/06 11:29:41;;;;;;;4.22;0.40;;;18.30;72.50;;;;;;4792995;30;20098;-69
2021/10/06 11:32:07;;;;;;;4.28;0.32;;;18.30;72.60;;;;;;4792197;30;20158;-69
2021/10/06 11:35:01;;;;;;;0.63;0.20;;;18.30;72.80;;;;;;4776511;30;20074;-69
2021/10/06 11:37:27;;;;;;;3.78;0.40;;;18.20;72.40;;;;;;4792186;30;20051;-69
2021/10/06 11:39:54;;;;;;;2.15;0.40;;;18.20;72.70;;;;;;4792273;30;20051;-69
2021/10/06 11:42:29;;;;;;;4.05;0.35;;;18.20;72.80;;;;;;4792069;30;20047;-70
2021/10/06 11:44:55;;;;;;;3.25;0.50;;;18.20;73.30;;;;;;4790923;30;20429;-69
2021/10/06 11:47:21;;;;;;;1.13;0.17;;;18.20;73.50;;;;;;4792163;30;20055;-69
2021/10/06 11:49:49;;;;;;;1.80;0.20;;;18.20;73.30;;;;;;4791996;30;20329;-69
2021/10/06 11:52:20;;;;;;;2.22;0.40;;;18.20;73.30;;;;;;4776219;30;20115;-69
2021/10/06 11:54:47;;;;;;;1.58;0.10;;;18.20;73.50;;;;;;4791789;30;20467;-69
2021/10/06 11:57:14;;;;;;;1.98;0.30;;;18.20;73.40;;;;;;4792597;30;20055;-70
2021/10/06 11:59:44;;;;;;;1.25;0.22;;;18.20;73.60;;;;;;4776253;30;20055;-69
2021/10/06 12:02:12;;;;;;;3.42;0.60;;;18.10;73.80;;;;;;4791094;30;20062;-69
2021/10/06 12:04:40;;;;;;;1.23;0.28;;;18.10;73.70;;;;;;4791855;30;20379;-69
2021/10/06 12:07:11;;;;;;;1.02;0.10;;;18.10;73.50;;;;;;4791808;30;20208;-69
2021/10/06 12:09:46;;;;;;;1.90;0.20;;;18.10;73.40;;;;;;4791447;30;20371;-70
2021/10/06 12:12:18;;;;;;;2.53;0.30;;;18.10;73.50;;;;;;4791530;30;20047;-69
2021/10/06 12:14:47;;;;;;;0.85;0.20;;;18.10;73.80;;;;;;4791644;30;20047;-69
2021/10/06 12:17:20;;;;;;;2.63;0.17;;;18.10;73.60;;;;;;4775727;30;20070;-69
2021/10/06 12:20:16;;;;;;;1.08;0.20;;;18.10;73.80;;;;;;4792198;30;20083;-69
2021/10/06 12:22:44;;;;;;;1.20;0.20;;;18.10;73.80;;;;;;4791108;30;20517;-69
2021/10/06 12:25:17;;;;;;;1.58;0.15;;;18.10;73.80;;;;;;4791872;30;20062;-69
2021/10/06 12:27:57;;;;;;;2.63;0.30;;;18.00;73.70;;;;;;4782605;30;20137;-69
2021/10/06 12:30:28;;;;;;;1.85;0.22;;;18.10;73.80;;;;;;4773944;30;20477;-69
2021/10/06 12:33:10;;;;;;;1.13;0.20;;;18.00;73.80;;;;;;4773078;30;20074;-69
2021/10/06 12:35:42;;;;;;;1.70;0.30;;;18.00;73.70;;;;;;4757555;30;20407;-70
2021/10/06 12:38:08;;;;;;;0.90;0.15;;;18.00;73.70;;;;;;4773385;30;20055;-69
2021/10/06 12:40:40;;;;;;;2.28;0.35;;;18.00;73.80;;;;;;4773178;30;20086;-69
2021/10/06 12:43:14;;;;;;;1.73;0.10;;;18.00;73.80;;;;;;4773293;30;20063;-69
2021/10/06 12:46:05;;;;;;;1.25;0.30;;;18.00;73.70;;;;;;4773176;30;20047;-69
2021/10/06 12:48:36;;;;;;;2.17;0.30;;;18.00;73.20;;;;;;4773275;30;20052;-69
2021/10/06 12:51:02;;;;;;;2.50;0.28;;;18.00;73.60;;;;;;4773215;30;20142;-70
2021/10/06 12:53:28;;;;;;;1.15;0.25;;;18.00;73.40;;;;;;4773797;30;20051;-69
2021/10/06 12:55:54;;;;;;;1.25;0.20;;;18.00;73.60;;;;;;4773190;30;20472;-69
2021/10/06 12:58:20;;;;;;;0.40;0.20;;;18.00;73.90;;;;;;4772673;30;20083;-70
2021/10/06 13:00:46;;;;;;;2.28;0.22;;;18.00;74.20;;;;;;4772741;30;20102;-70
2021/10/06 13:03:11;;;;;;;1.60;0.32;;;18.00;74.00;;;;;;4772872;30;20054;-69
2021/10/06 13:05:38;;;;;;;0.22;0.10;;;18.00;73.90;;;;;;4772914;30;20056;-70
2021/10/06 13:08:15;;;;;;;0.70;0.15;;;18.00;73.60;;;;;;4772540;30;20056;-70
2021/10/06 13:10:41;;;;;;;1.42;0.45;;;18.00;72.80;;;;;;4771982;30;20059;-69
2021/10/06 13:13:07;;;;;;;0.90;0.20;;;18.00;73.40;;;;;;4772590;30;20059;-69
2021/10/06 13:15:33;;;;;;;0.77;0.20;;;18.00;73.50;;;;;;4772935;30;20065;-69
2021/10/06 13:17:58;;;;;;;1.35;0.30;;;18.00;73.80;;;;;;4782239;30;20043;-69
2021/10/06 13:20:24;;;;;;;1.13;0.50;;;18.00;73.90;;;;;;4790314;30;20371;-69
2021/10/06 13:22:50;;;;;;;1.08;0.40;;;18.00;73.90;;;;;;4790476;30;20055;-69
2021/10/06 13:25:15;;;;;;;4.03;0.73;;;18.00;73.60;;;;;;4789882;30;20384;-70
2021/10/06 13:27:41;;;;;;;5.53;0.73;;;18.00;73.40;;;;;;4774168;30;20414;-71
2021/10/06 13:30:08;;;;;;;6.85;1.10;;;18.00;73.70;;;;;;4790185;30;20144;-69
2021/10/06 13:32:33;;;;;;;4.20;1.08;;;18.00;73.90;;;;;;4790103;30;20071;-69
2021/10/06 13:34:59;;;;;;;7.72;1.52;;;18.00;74.10;;;;;;4790056;30;20055;-68
2021/10/06 13:37:25;;;;;;;4.55;1.13;;;18.10;73.90;;;;;;4790154;30;20061;-69
2021/10/06 13:39:51;;;;;;;5.88;1.05;;;18.10;74.10;;;;;;4790460;30;20051;-69
2021/10/06 13:42:17;;;;;;;5.03;0.70;;;18.10;74.00;;;;;;4789754;29;20404;-69
2021/10/06 13:44:42;;;;;;;5.35;0.90;;;18.10;73.30;;;;;;4790089;30;20055;-70
2021/10/06 13:47:08;;;;;;;4.05;0.77;;;18.10;73.20;;;;;;4770494;30;20047;-69
2021/10/06 13:49:34;;;;;;;3.33;0.57;;;18.00;70.20;;;;;;4771710;30;20143;-69
2021/10/06 13:52:01;;;;;;;3.40;0.85;;;17.80;70.00;;;;;;4771633;30;20048;-69
2021/10/06 13:54:27;;;;;;;4.03;0.80;;;17.60;70.40;;;;;;4756261;30;20059;-69
2021/10/06 13:56:52;;;;;;;4.18;0.85;;;17.50;69.80;;;;;;4772708;30;20130;-69
2021/10/06 13:59:18;;;;;;;2.60;0.57;;;17.50;70.30;;;;;;4772536;30;20321;-69
2021/10/06 14:01:44;;;;;;;5.82;0.60;;;17.50;71.40;;;;;;4773737;30;20044;-73
2021/10/06 14:04:09;;;;;;;3.28;0.40;;;17.60;70.70;;;;;;4759167;30;20051;-76
2021/10/06 14:06:35;;;;;;;1.27;0.30;;;17.70;68.90;;;;;;4773902;30;20124;-73
2021/10/06 14:09:01;;;;;;;1.17;0.28;;;17.70;67.80;;;;;;4789680;30;20058;-75
2021/10/06 14:11:26;;;;;;;0.82;0.22;;;17.70;66.90;;;;;;4789626;30;20052;-69
2021/10/06 14:13:53;;;;;;;2.78;0.40;;;17.70;67.50;;;;;;4787052;30;20058;-70
2021/10/06 14:16:19;;;;;;;3.38;0.60;;;17.70;67.80;;;;;;4789413;30;20387;-69
2021/10/06 14:18:45;;;;;;;5.18;0.68;;;17.60;67.90;;;;;;4789123;30;20051;-67
2021/10/06 14:21:12;;;;;;;1.88;0.40;;;17.60;68.10;;;;;;4790202;30;20136;-69
2021/10/06 14:23:38;;;;;;;1.52;0.60;;;17.60;67.90;;;;;;4787498;30;20384;-69
2021/10/06 14:26:03;;;;;;;2.45;0.30;;;17.50;67.70;;;;;;4789338;30;20055;-69
2021/10/06 14:28:30;;;;;;;6.38;0.60;;;17.40;67.60;;;;;;4789370;30;20122;-68
2021/10/06 14:30:57;;;;;;;5.25;0.85;;;17.40;68.10;;;;;;4789377;30;20051;-70
2021/10/06 14:33:23;;;;;;;2.83;0.45;;;17.40;68.40;;;;;;4775933;30;20124;-69
2021/10/06 14:35:49;;;;;;;3.22;0.60;;;17.30;68.20;;;;;;4771489;30;20411;-67
2021/10/06 14:38:15;;;;;;;3.42;0.60;;;17.40;68.30;;;;;;4771527;30;20066;-69
2021/10/06 14:40:40;;;;;;;3.47;0.73;;;17.30;68.10;;;;;;4771463;30;20059;-69
2021/10/06 14:43:06;;;;;;;3.45;0.80;;;17.30;68.40;;;;;;4771564;30;20051;-68
2021/10/06 14:45:32;;;;;;;6.50;0.60;;;17.30;69.20;;;;;;4771343;30;20048;-69
2021/10/06 14:47:58;;;;;;;6.88;1.13;;;17.30;69.60;;;;;;4771595;30;20537;-69
2021/10/06 14:50:24;;;;;;;3.22;0.38;;;17.30;69.70;;;;;;4771501;30;20064;-71
2021/10/06 14:52:51;;;;;;;3.88;0.40;;;17.50;69.70;;;;;;4771846;30;20461;-69
2021/10/06 14:55:16;;;;;;;6.97;0.50;;;17.60;68.30;;;;;;4772237;30;20044;-71
2021/10/06 14:57:42;;;;;;;4.70;0.30;;;17.70;67.10;;;;;;4776078;29;20471;-69
2021/10/06 15:00:11;;;;;;;4.53;0.60;;;17.70;66.90;;;;;;4806523;29;20138;-69
2021/10/06 15:02:38;;;;;;;1.55;0.30;;;17.80;66.00;;;;;;4792276;30;20148;-74
2021/10/06 15:05:04;;;;;;;3.97;0.70;;;17.80;65.60;;;;;;4776777;30;20051;-75
2021/10/06 15:07:30;;;;;;;2.80;0.82;;;17.80;65.30;;;;;;4792159;30;20086;-77
2021/10/06 15:09:56;;;;;;;6.88;1.55;;;17.80;65.20;;;;;;4791950;30;20043;-69
2021/10/06 15:12:22;;;;;;;3.08;0.90;;;17.80;65.10;;;;;;4789875;30;20108;-68
2021/10/06 15:14:52;;;;;;;3.20;0.65;;;17.80;65.00;;;;;;4790612;30;20375;-70
2021/10/06 15:17:18;;;;;;;2.17;0.45;;;17.80;64.70;;;;;;4791745;30;20084;-72
2021/10/06 15:19:44;;;;;;;2.15;0.40;;;17.80;64.70;;;;;;4792315;30;20098;-68
2021/10/06 15:22:12;;;;;;;1.55;0.43;;;17.80;64.80;;;;;;4792303;30;20117;-69
2021/10/06 15:24:38;;;;;;;4.75;0.50;;;17.80;64.80;;;;;;4792287;30;20086;-72
2021/10/06 15:27:04;;;;;;;7.25;1.15;;;17.80;64.90;;;;;;4792960;30;20474;-72
2021/10/06 15:29:30;;;;;;;8.35;0.80;;;17.80;65.50;;;;;;4792293;30;20356;-72
2021/10/06 15:31:59;;;;;;;3.83;0.70;;;17.80;67.60;;;;;;4792007;30;20091;-72
2021/10/06 15:34:26;;;;;;;5.18;0.50;;;17.80;69.00;;;;;;4792528;30;20051;-73
2021/10/06 15:36:51;;;;;;;4.18;0.40;;;17.90;69.10;;;;;;4792307;30;20448;-73
2021/10/06 15:39:21;;;;;;;3.72;0.60;;;17.90;69.40;;;;;;4792100;30;20126;-71
2021/10/06 15:41:50;;;;;;;4.45;0.73;;;18.00;69.90;;;;;;4787941;30;20051;-72
2021/10/06 15:44:16;;;;;;;2.55;0.40;;;18.20;70.20;;;;;;4774045;30;20063;-72
2021/10/06 15:46:43;;;;;;;10.55;0.70;;;18.20;70.80;;;;;;4774190;30;20043;-72
2021/10/06 15:49:09;;;;;;;4.70;0.40;;;18.40;70.40;;;;;;4773709;30;20117;-72
2021/10/06 15:51:39;;;;;;;10.82;1.10;;;18.40;70.30;;;;;;4773981;30;20142;-72
2021/10/06 15:54:09;;;;;;;7.57;0.65;;;18.50;70.50;;;;;;4773760;30;20044;-72
2021/10/06 15:56:40;;;;;;;4.75;0.70;;;18.50;70.40;;;;;;4773978;30;20063;-71
2021/10/06 15:59:06;;;;;;;11.15;0.88;;;18.60;70.80;;;;;;4774003;30;20468;-72
2021/10/06 16:01:33;;;;;;;11.27;0.80;;;18.70;70.70;;;;;;4774680;30;20091;-72
2021/10/06 16:03:59;;;;;;;10.60;1.13;;;18.70;70.70;;;;;;4791238;30;20054;-72
2021/10/06 16:06:24;;;;;;;5.13;0.90;;;18.70;70.80;;;;;;4791183;29;20100;-70
2021/10/06 16:08:50;;;;;;;11.68;0.80;;;18.80;70.90;;;;;;4791672;30;20086;-70
2021/10/06 16:11:16;;;;;;;7.13;0.63;;;18.80;71.00;;;;;;4792280;30;20464;-70
2021/10/06 16:13:41;;;;;;;6.50;0.68;;;18.80;71.10;;;;;;4791637;30;20062;-71
2021/10/06 16:16:08;;;;;;;13.32;1.48;;;18.80;71.40;;;;;;4791785;30;20051;-71
2021/10/06 16:18:34;;;;;;;14.93;1.20;;;18.80;71.30;;;;;;4788151;30;20089;-70
2021/10/06 16:21:00;;;;;;;9.43;1.40;;;18.80;71.20;;;;;;4791354;30;20063;-71
2021/10/06 16:23:25;;;;;;;13.30;1.65;;;18.70;71.30;;;;;;4791556;30;20049;-71
2021/10/06 16:25:51;;;;;;;22.85;1.90;;;18.80;71.00;;;;;;4791593;30;20329;-71
2021/10/06 16:28:17;;;;;;;13.23;1.48;;;18.70;71.10;;;;;;4791248;30;20109;-71
2021/10/06 16:30:43;;;;;;;16.60;1.70;;;18.70;71.30;;;;;;4790678;30;20112;-71
2021/10/06 16:33:09;;;;;;;9.98;1.25;;;18.70;71.50;;;;;;4789386;30;20070;-71
2021/10/06 16:35:34;;;;;;;11.98;1.55;;;18.70;71.70;;;;;;4791035;30;20047;-71
2021/10/06 16:38:00;;;;;;;18.35;2.10;;;18.60;72.00;;;;;;4791393;30;20444;-71
2021/10/06 16:40:28;;;;;;;12.90;1.20;;;18.60;72.20;;;;;;4791682;30;20127;-70
2021/10/06 16:42:55;;;;;;;13.60;1.30;;;18.60;72.10;;;;;;4789837;30;20059;-70
2021/10/06 16:45:22;;;;;;;14.45;1.58;;;18.60;72.20;;;;;;4790319;30;20452;-70
2021/10/06 16:47:47;;;;;;;9.38;1.13;;;18.60;72.30;;;;;;4790689;30;20062;-72
2021/10/06 16:50:13;;;;;;;9.75;1.08;;;18.60;72.50;;;;;;4790730;30;20055;-71
2021/10/06 16:52:39;;;;;;;8.50;1.10;;;18.50;72.40;;;;;;4790952;30;20503;-73
2021/10/06 18:16:14;;;;;;;7.60;0.80;;;18.10;71.70;;;;;;5530804;24;20066;-67
2021/10/06 18:18:41;;;;;;;6.90;0.90;;;18.10;71.90;;;;;;4821956;29;20061;-69
2021/10/06 18:21:07;;;;;;;8.05;1.45;;;18.10;72.10;;;;;;4825666;29;20470;-68
2021/10/06 18:23:32;;;;;;;6.82;0.98;;;18.20;72.20;;;;;;4809864;29;20061;-70
2021/10/06 18:25:59;;;;;;;6.25;0.73;;;18.20;72.60;;;;;;4825674;29;20050;-72
2021/10/06 18:28:24;;;;;;;9.63;0.80;;;18.20;73.00;;;;;;4825785;29;20054;-68
2021/10/06 18:30:50;;;;;;;6.55;0.60;;;18.20;73.30;;;;;;4828855;29;20051;-69
2021/10/06 18:33:16;;;;;;;6.15;0.77;;;18.20;73.70;;;;;;4829159;29;20069;-69
2021/10/06 18:35:43;;;;;;;8.20;0.95;;;18.30;74.20;;;;;;4829226;29;20133;-69
2021/10/06 18:38:10;;;;;;;6.60;0.85;;;18.20;74.00;;;;;;4829282;29;20129;-71
2021/10/06 18:40:35;;;;;;;4.95;0.85;;;18.30;74.30;;;;;;4828824;29;20050;-69